createdAt,value
2023-03-05T00:01:27.871Z,4.30
2023-03-05T00:03:57.493Z,4.20
2023-03-05T00:06:28.306Z,4.20
2023-03-05T00:08:58.191Z,4.20
2023-03-05T00:11:28.112Z,4.20
2023-03-05T00:13:56.649Z,4.20
2023-03-05T00:16:27.259Z,4.20
2023-03-05T00:18:56.305Z,4.20
2023-03-05T00:21:26.226Z,4.20
2023-03-05T00:23:55.554Z,4.20
2023-03-05T00:26:25.898Z,4.10
2023-03-05T00:28:53.928Z,4.10
2023-03-05T00:31:24.725Z,4.00
2023-03-05T00:33:55.551Z,4.00
2023-03-05T00:36:24.429Z,4.10
2023-03-05T00:38:52.351Z,4.20
2023-03-05T00:41:20.279Z,4.20
2023-03-05T00:43:48.671Z,4.20
2023-03-05T00:46:17.014Z,4.20
2023-03-05T00:48:45.048Z,4.20
2023-03-05T00:51:14.351Z,4.20
2023-03-05T00:53:42.276Z,4.10
2023-03-05T00:56:10.402Z,4.10
2023-03-05T00:58:39.036Z,4.10
2023-03-05T01:01:08.237Z,4.10
2023-03-05T01:03:37.242Z,4.10
2023-03-05T01:06:08.006Z,4.20
2023-03-05T01:08:38.233Z,4.10
2023-03-05T01:11:07.603Z,4.10
2023-03-05T01:13:35.854Z,4.10
2023-03-05T01:16:04.411Z,4.10
2023-03-05T01:18:32.508Z,4.10
2023-03-05T01:21:00.592Z,4.10
2023-03-05T01:23:28.701Z,4.10
2023-03-05T01:26:00.264Z,4.20
2023-03-05T01:28:28.768Z,4.20
2023-03-05T01:30:56.932Z,4.20
2023-03-05T01:33:24.900Z,4.20
2023-03-05T01:35:53.267Z,4.20
2023-03-05T01:38:21.208Z,4.20
2023-03-05T01:40:49.540Z,4.20
2023-03-05T01:43:25.616Z,4.20
2023-03-05T01:46:26.908Z,4.20
2023-03-05T01:49:02.198Z,4.10
2023-03-05T01:51:33.732Z,4.10
2023-03-05T01:54:03.222Z,4.10
2023-03-05T01:56:32.209Z,4.10
2023-03-05T01:59:04.284Z,4.10
2023-03-05T02:01:34.774Z,4.10
2023-03-05T02:04:03.339Z,4.10
2023-03-05T02:06:31.492Z,4.20
2023-03-05T02:09:00.640Z,4.10
2023-03-05T02:11:28.659Z,4.20
2023-03-05T02:13:57.706Z,4.20
2023-03-05T02:16:27.278Z,4.20
2023-03-05T02:18:55.241Z,4.20
2023-03-05T02:21:37.744Z,4.30
2023-03-05T02:24:06.461Z,4.30
2023-03-05T02:26:34.344Z,4.20
2023-03-05T02:29:04.114Z,4.20
2023-03-05T02:31:32.080Z,4.20
2023-03-05T02:34:01.901Z,4.20
2023-03-05T02:36:31.648Z,4.20
2023-03-05T02:38:59.989Z,4.20
2023-03-05T02:41:28.758Z,4.20
2023-03-05T02:43:58.806Z,4.10
2023-03-05T02:46:27.063Z,4.10
2023-03-05T02:48:54.971Z,4.20
2023-03-05T02:51:22.898Z,4.20
2023-03-05T02:53:52.608Z,4.20
2023-03-05T02:56:21.195Z,4.20
2023-03-05T02:58:49.217Z,4.30
2023-03-05T03:01:17.296Z,4.30
2023-03-05T03:03:45.631Z,4.30
2023-03-05T03:06:13.545Z,4.30
2023-03-05T03:08:41.427Z,4.40
2023-03-05T03:11:12.767Z,4.50
2023-03-05T03:13:41.146Z,4.50
2023-03-05T03:16:10.913Z,4.60
2023-03-05T03:18:39.192Z,4.60
2023-03-05T03:21:07.664Z,4.60
2023-03-05T03:23:35.890Z,4.60
2023-03-05T03:26:03.881Z,4.60
2023-03-05T03:28:33.304Z,4.60
2023-03-05T03:31:01.300Z,4.50
2023-03-05T03:33:29.237Z,4.60
2023-03-05T03:35:57.157Z,4.50
2023-03-05T03:38:25.294Z,4.50
2023-03-05T03:40:53.228Z,4.60
2023-03-05T03:43:21.223Z,4.60
2023-03-05T03:45:50.568Z,4.60
2023-03-05T03:48:18.513Z,4.50
2023-03-05T03:50:46.486Z,4.30
2023-03-05T03:53:14.485Z,4.40
2023-03-05T03:55:43.977Z,4.30
2023-03-05T03:58:12.017Z,4.40
2023-03-05T04:00:41.509Z,4.30
2023-03-05T04:03:10.880Z,4.40
2023-03-05T04:05:38.789Z,4.40
2023-03-05T04:08:11.876Z,4.30
2023-03-05T04:10:39.966Z,4.40
2023-03-05T04:13:08.144Z,4.30
2023-03-05T04:15:36.059Z,4.20
2023-03-05T04:18:04.151Z,4.30
2023-03-05T04:20:33.415Z,4.40
2023-03-05T04:23:01.334Z,4.30
2023-03-05T04:25:29.222Z,4.30
2023-03-05T04:27:57.220Z,4.30
2023-03-05T04:30:25.100Z,4.40
2023-03-05T04:32:53.038Z,4.40
2023-03-05T04:35:21.700Z,4.40
2023-03-05T04:37:51.236Z,4.50
2023-03-05T04:40:19.728Z,4.50
2023-03-05T04:42:47.758Z,4.40
2023-03-05T04:45:17.165Z,4.40
2023-03-05T04:47:45.688Z,4.50
2023-03-05T04:50:14.289Z,4.40
2023-03-05T04:52:43.618Z,4.50
2023-03-05T04:55:14.268Z,4.50
2023-03-05T04:57:42.499Z,4.50
2023-03-05T05:00:14.456Z,4.50
2023-03-05T05:02:42.863Z,4.50
2023-03-05T05:05:13.168Z,4.50
2023-03-05T05:07:41.106Z,4.50
2023-03-05T05:10:10.562Z,4.50
2023-03-05T05:12:40.806Z,4.40
2023-03-05T05:15:10.231Z,4.40
2023-03-05T05:17:38.484Z,4.30
2023-03-05T05:20:08.348Z,4.20
2023-03-05T05:22:36.651Z,4.10
2023-03-05T05:25:05.202Z,4.10
2023-03-05T05:27:33.296Z,4.00
2023-03-05T05:30:04.024Z,4.00
2023-03-05T05:32:31.999Z,4.00
2023-03-05T05:35:00.482Z,4.10
2023-03-05T05:37:28.716Z,4.10
2023-03-05T05:39:56.596Z,4.10
2023-03-05T05:42:25.949Z,4.10
2023-03-05T05:44:55.401Z,4.00
2023-03-05T05:47:24.709Z,4.10
2023-03-05T05:49:52.822Z,4.10
2023-03-05T05:52:20.723Z,4.00
2023-03-05T05:54:49.075Z,4.00
2023-03-05T05:57:17.095Z,4.00
2023-03-05T05:59:44.988Z,4.00
2023-03-05T06:02:13.094Z,4.00
2023-03-05T06:04:42.355Z,4.00
2023-03-05T06:07:10.372Z,3.90
2023-03-05T06:09:38.322Z,4.00
2023-03-05T06:12:07.645Z,4.00
2023-03-05T06:14:35.702Z,4.00
2023-03-05T06:17:03.838Z,4.00
2023-03-05T06:19:31.808Z,4.00
2023-03-05T06:22:01.199Z,4.00
2023-03-05T06:24:29.133Z,4.10
2023-03-05T06:26:57.104Z,4.00
2023-03-05T06:29:25.030Z,4.00
2023-03-05T06:31:53.007Z,4.00
2023-03-05T06:34:20.993Z,4.00
2023-03-05T06:36:48.896Z,4.10
2023-03-05T06:39:18.264Z,4.10
2023-03-05T06:41:46.180Z,4.20
2023-03-05T06:44:14.113Z,4.30
2023-03-05T06:46:42.034Z,4.30
2023-03-05T06:49:11.677Z,4.30
2023-03-05T06:51:41.070Z,4.40
2023-03-05T06:54:11.865Z,4.50
2023-03-05T06:56:43.418Z,4.40
2023-03-05T06:59:12.746Z,4.50
2023-03-05T07:01:40.722Z,4.50
2023-03-05T07:04:08.900Z,4.50
2023-03-05T07:06:39.182Z,4.60
2023-03-05T07:09:10.063Z,4.60
2023-03-05T07:11:38.013Z,4.60
2023-03-05T07:14:07.493Z,4.70
2023-03-05T07:16:35.841Z,4.70
2023-03-05T07:19:06.514Z,4.60
2023-03-05T07:21:39.272Z,4.70
2023-03-05T07:24:09.390Z,4.60
2023-03-05T07:26:37.600Z,4.70
2023-03-05T07:29:07.046Z,4.70
2023-03-05T07:31:35.036Z,4.80
2023-03-05T07:34:04.139Z,4.70
2023-03-05T07:36:34.862Z,4.70
2023-03-05T07:39:04.715Z,4.80
2023-03-05T07:41:32.910Z,4.90
2023-03-05T07:44:00.955Z,4.80
2023-03-05T07:46:32.650Z,4.90
2023-03-05T07:49:01.035Z,4.80
2023-03-05T07:51:29.775Z,4.90
2023-03-05T07:53:59.381Z,4.80
2023-03-05T07:56:31.577Z,4.80
2023-03-05T07:58:59.861Z,4.80
2023-03-05T08:01:28.553Z,4.90
2023-03-05T08:03:57.906Z,4.90
2023-03-05T08:06:25.908Z,5.00
2023-03-05T08:08:53.895Z,5.10
2023-03-05T08:11:22.155Z,5.10
2023-03-05T08:13:50.138Z,5.20
2023-03-05T08:16:19.789Z,5.20
2023-03-05T08:18:48.345Z,5.20
2023-03-05T08:21:19.804Z,5.20
2023-03-05T08:23:48.033Z,5.10
2023-03-05T08:26:17.988Z,5.10
2023-03-05T08:28:46.185Z,5.10
2023-03-05T08:31:15.587Z,5.20
2023-03-05T08:33:43.994Z,5.30
2023-03-05T08:36:13.259Z,5.20
2023-03-05T08:38:45.218Z,5.20
2023-03-05T08:41:13.381Z,5.30
2023-03-05T08:43:41.304Z,5.50
2023-03-05T08:46:10.928Z,5.50
2023-03-05T08:48:38.882Z,5.50
2023-03-05T08:51:08.670Z,5.60
2023-03-05T08:53:36.576Z,5.70
2023-03-05T08:56:06.690Z,5.90
2023-03-05T08:58:34.803Z,5.90
2023-03-05T09:01:03.529Z,5.90
2023-03-05T09:03:32.192Z,5.90
2023-03-05T09:06:01.879Z,5.80
2023-03-05T09:08:30.933Z,5.70
2023-03-05T09:10:59.179Z,5.80
2023-03-05T09:13:28.395Z,5.80
2023-03-05T09:15:57.077Z,5.80
2023-03-05T09:18:24.997Z,5.80
2023-03-05T09:20:52.835Z,5.80
2023-03-05T09:23:20.749Z,5.70
2023-03-05T09:25:49.410Z,5.80
2023-03-05T09:28:18.103Z,5.70
2023-03-05T09:30:47.496Z,5.70
2023-03-05T09:33:15.607Z,5.90
2023-03-05T09:35:43.820Z,5.80
2023-03-05T09:38:11.779Z,5.90
2023-03-05T09:40:54.549Z,5.90
2023-03-05T09:43:31.958Z,5.80
2023-03-05T09:46:11.392Z,5.80
2023-03-05T09:48:50.687Z,5.50
2023-03-05T09:51:24.162Z,5.60
2023-03-05T09:54:01.641Z,5.70
2023-03-05T09:56:33.559Z,5.80
2023-03-05T09:59:07.284Z,5.80
2023-03-05T10:01:39.807Z,5.90
2023-03-05T10:04:12.501Z,5.90
2023-03-05T10:06:49.745Z,5.80
2023-03-05T10:09:28.756Z,5.80
2023-03-05T10:12:01.011Z,5.90
2023-03-05T10:14:31.558Z,5.90
2023-03-05T10:17:25.127Z,6.00
2023-03-05T10:20:24.860Z,6.00
2023-03-05T10:23:15.208Z,6.10
2023-03-05T10:25:55.660Z,6.00
2023-03-05T10:28:30.529Z,6.20
2023-03-05T10:31:11.760Z,6.20
2023-03-05T10:33:52.569Z,6.30
2023-03-05T10:36:49.006Z,6.40
2023-03-05T10:39:50.604Z,6.50
2023-03-05T10:42:31.041Z,6.60
2023-03-05T10:45:00.612Z,6.60
2023-03-05T10:47:36.701Z,6.60
2023-03-05T10:50:17.059Z,6.70
2023-03-05T10:52:48.519Z,6.70
2023-03-05T10:55:18.695Z,6.80
2023-03-05T10:57:47.393Z,6.70
2023-03-05T11:00:21.019Z,6.70
2023-03-05T11:02:58.747Z,6.70
2023-03-05T11:05:42.466Z,6.70
2023-03-05T11:08:25.896Z,6.70
2023-03-05T11:11:14.542Z,6.70
2023-03-05T11:13:53.746Z,6.60
2023-03-05T11:16:24.212Z,6.40
2023-03-05T11:19:17.464Z,6.30
2023-03-05T11:21:48.249Z,6.30
2023-03-05T11:24:18.743Z,6.30
2023-03-05T11:26:49.889Z,6.20
2023-03-05T11:29:22.054Z,6.20
2023-03-05T11:31:50.442Z,6.20
2023-03-05T11:34:31.406Z,6.20
2023-03-05T11:37:06.550Z,6.10
2023-03-05T11:39:38.412Z,6.10
2023-03-05T11:42:11.521Z,6.10
2023-03-05T11:44:47.869Z,6.20
2023-03-05T11:47:24.167Z,6.10
2023-03-05T11:49:56.221Z,6.10
2023-03-05T11:52:30.961Z,6.10
2023-03-05T11:55:04.953Z,6.10
2023-03-05T11:57:47.252Z,6.10
2023-03-05T12:00:20.011Z,6.20
2023-03-05T12:02:53.879Z,6.20
2023-03-05T12:05:22.456Z,6.30
2023-03-05T12:07:56.344Z,6.20
2023-03-05T12:10:26.634Z,6.10
2023-03-05T12:13:00.490Z,6.20
2023-03-05T12:15:59.992Z,6.20
2023-03-05T12:18:39.368Z,6.10
2023-03-05T12:21:09.195Z,6.10
2023-03-05T12:23:50.159Z,6.10
2023-03-05T12:26:18.494Z,6.20
2023-03-05T12:28:57.767Z,6.20
2023-03-05T12:31:35.325Z,6.10
2023-03-05T12:34:50.258Z,6.00
2023-03-05T12:38:17.126Z,6.00
2023-03-05T12:40:53.718Z,5.80
2023-03-05T12:43:32.741Z,5.80
2023-03-05T12:46:26.771Z,5.90
2023-03-05T12:48:54.982Z,6.00
2023-03-05T12:51:31.740Z,6.10
2023-03-05T12:54:18.231Z,6.20
2023-03-05T12:56:48.854Z,6.30
2023-03-05T12:59:20.883Z,6.50
2023-03-05T13:01:54.989Z,6.50
2023-03-05T13:04:26.194Z,6.50
2023-03-05T13:07:02.178Z,6.50
2023-03-05T13:09:33.590Z,6.50
2023-03-05T13:12:06.065Z,6.50
2023-03-05T13:14:37.911Z,6.50
2023-03-05T13:17:26.322Z,6.60
2023-03-05T13:19:55.029Z,6.70
2023-03-05T13:22:24.619Z,6.60
2023-03-05T13:25:11.718Z,6.60
2023-03-05T13:27:41.473Z,6.60
2023-03-05T13:30:22.770Z,6.80
2023-03-05T13:32:53.273Z,6.60
2023-03-05T13:35:22.513Z,6.60
2023-03-05T13:37:50.920Z,6.60
2023-03-05T13:40:24.501Z,6.60
2023-03-05T13:42:55.733Z,6.60
2023-03-05T13:45:28.928Z,6.60
2023-03-05T13:47:59.210Z,6.50
2023-03-05T13:50:29.921Z,6.60
2023-03-05T13:52:59.384Z,6.60
2023-03-05T13:55:27.404Z,6.60
2023-03-05T13:57:56.663Z,6.60
2023-03-05T14:00:31.457Z,6.60
2023-03-05T14:03:02.350Z,6.60
2023-03-05T14:05:32.078Z,6.60
2023-03-05T14:08:00.125Z,6.60
2023-03-05T14:10:34.333Z,6.60
2023-03-05T14:13:07.733Z,6.60
2023-03-05T14:15:36.931Z,6.60
2023-03-05T14:18:19.427Z,6.50
2023-03-05T14:21:03.231Z,6.30
2023-03-05T14:23:40.778Z,6.20
2023-03-05T14:26:33.492Z,6.30
2023-03-05T14:29:05.742Z,6.30
2023-03-05T14:31:39.798Z,6.40
2023-03-05T14:34:08.691Z,6.40
2023-03-05T14:36:38.968Z,6.40
2023-03-05T14:39:06.931Z,6.20
2023-03-05T14:41:39.545Z,6.10
2023-03-05T14:44:13.789Z,6.10
2023-03-05T14:46:42.192Z,6.20
2023-03-05T14:49:10.502Z,6.20
2023-03-05T14:51:42.901Z,6.20
2023-03-05T14:54:21.527Z,6.20
2023-03-05T14:56:49.868Z,6.30
2023-03-05T14:59:21.169Z,6.30
2023-03-05T15:01:50.523Z,6.30
2023-03-05T15:04:20.087Z,6.20
2023-03-05T15:06:50.888Z,6.20
2023-03-05T15:09:20.458Z,6.20
2023-03-05T15:11:49.253Z,6.10
2023-03-05T15:14:17.195Z,6.00
2023-03-05T15:16:48.724Z,6.00
2023-03-05T15:19:18.475Z,6.10
2023-03-05T15:21:46.406Z,6.10
2023-03-05T15:24:14.823Z,6.10
2023-03-05T15:26:42.714Z,6.10
2023-03-05T15:29:10.636Z,6.10
2023-03-05T15:31:40.403Z,6.10
2023-03-05T15:34:09.830Z,6.00
2023-03-05T15:36:37.694Z,6.00
2023-03-05T15:39:05.595Z,5.90
2023-03-05T15:41:33.531Z,5.80
2023-03-05T15:44:01.459Z,5.80
2023-03-05T15:46:29.473Z,5.90
2023-03-05T15:48:57.452Z,5.80
2023-03-05T15:51:26.731Z,5.90
2023-03-05T15:53:54.621Z,5.90
2023-03-05T15:56:22.485Z,5.90
2023-03-05T15:58:51.167Z,6.00
2023-03-05T16:01:20.714Z,6.00
2023-03-05T16:03:49.419Z,6.00
2023-03-05T16:06:22.512Z,6.00
2023-03-05T16:08:56.109Z,6.00
2023-03-05T16:11:24.048Z,5.90
2023-03-05T16:13:51.963Z,5.90
2023-03-05T16:16:20.203Z,5.90
2023-03-05T16:18:49.523Z,5.90
2023-03-05T16:21:17.556Z,5.90
2023-03-05T16:23:45.472Z,5.80
2023-03-05T16:26:14.933Z,5.90
2023-03-05T16:28:43.031Z,5.80
2023-03-05T16:31:11.219Z,5.80
2023-03-05T16:33:39.160Z,5.80
2023-03-05T16:36:25.689Z,5.80
2023-03-05T16:38:55.495Z,5.70
2023-03-05T16:41:25.213Z,5.80
2023-03-05T16:43:56.246Z,5.80
2023-03-05T16:46:25.014Z,5.80
2023-03-05T16:48:53.246Z,5.80
2023-03-05T16:51:21.673Z,5.80
2023-03-05T16:53:50.184Z,5.80
2023-03-05T16:56:18.183Z,5.90
2023-03-05T16:58:47.526Z,5.90
2023-03-05T17:01:18.089Z,5.90
2023-03-05T17:03:46.091Z,5.90
2023-03-05T17:06:17.220Z,5.90
2023-03-05T17:08:46.180Z,5.90
2023-03-05T17:11:14.856Z,5.90
2023-03-05T17:13:43.218Z,5.80
2023-03-05T17:16:15.423Z,5.70
2023-03-05T17:18:43.398Z,5.70
2023-03-05T17:21:13.399Z,5.70
2023-03-05T17:23:42.028Z,5.80
2023-03-05T17:26:12.613Z,5.80
2023-03-05T17:28:41.006Z,5.80
2023-03-05T17:31:09.328Z,5.80
2023-03-05T17:33:41.447Z,5.80
2023-03-05T17:36:15.134Z,5.80
2023-03-05T17:38:43.490Z,5.80
2023-03-05T17:41:11.587Z,5.80
2023-03-05T17:43:39.522Z,5.90
2023-03-05T17:46:07.943Z,5.80
2023-03-05T17:48:38.782Z,5.80
2023-03-05T17:51:09.270Z,5.70
2023-03-05T17:53:39.303Z,5.70
2023-03-05T17:56:08.924Z,5.80
2023-03-05T17:58:37.125Z,5.80
2023-03-05T18:01:05.506Z,5.80
2023-03-05T18:03:33.585Z,5.80
2023-03-05T18:06:01.534Z,5.90
2023-03-05T18:08:30.760Z,5.90
2023-03-05T18:10:58.847Z,5.80
2023-03-05T18:13:26.718Z,5.80
2023-03-05T18:15:54.949Z,5.80
2023-03-05T18:18:22.824Z,5.80
2023-03-05T18:20:50.905Z,5.70
2023-03-05T18:23:18.982Z,5.80
2023-03-05T18:25:48.342Z,5.80
2023-03-05T18:28:17.118Z,5.70
2023-03-05T18:30:46.428Z,5.70
2023-03-05T18:33:19.398Z,5.70
2023-03-05T18:35:49.556Z,5.70
2023-03-05T18:38:17.531Z,5.70
2023-03-05T18:40:46.369Z,5.60
2023-03-05T18:43:17.147Z,5.60
2023-03-05T18:45:46.788Z,5.60
2023-03-05T18:48:14.776Z,5.60
2023-03-05T18:50:42.991Z,5.50
2023-03-05T18:53:13.751Z,5.40
2023-03-05T18:55:42.802Z,5.20
2023-03-05T18:58:14.023Z,5.00
2023-03-05T19:00:44.927Z,4.90
2023-03-05T19:03:13.247Z,4.90
2023-03-05T19:05:42.098Z,5.00
2023-03-05T19:08:10.391Z,5.00
2023-03-05T19:10:38.371Z,5.00
2023-03-05T19:13:15.701Z,4.90
2023-03-05T19:15:45.170Z,4.80
2023-03-05T19:18:13.173Z,4.80
2023-03-05T19:20:41.189Z,4.70
2023-03-05T19:23:09.092Z,4.70
2023-03-05T19:25:36.929Z,4.70
2023-03-05T19:28:04.962Z,4.60
2023-03-05T19:30:33.032Z,4.60
2023-03-05T19:33:03.602Z,4.50
2023-03-05T19:35:31.846Z,4.40
2023-03-05T19:37:59.839Z,4.40
2023-03-05T19:40:27.809Z,4.30
2023-03-05T19:42:55.699Z,4.20
2023-03-05T19:45:23.580Z,4.20
2023-03-05T19:47:51.523Z,4.10
2023-03-05T19:50:21.165Z,4.10
2023-03-05T19:52:49.466Z,4.20
2023-03-05T19:55:17.542Z,4.20
2023-03-05T19:57:46.386Z,4.20
2023-03-05T20:00:14.772Z,4.20
2023-03-05T20:02:42.718Z,4.20
2023-03-05T20:05:10.855Z,4.20
2023-03-05T20:07:40.100Z,4.20
2023-03-05T20:10:08.541Z,4.20
2023-03-05T20:12:36.563Z,4.20
2023-03-05T20:15:04.708Z,4.20
2023-03-05T20:17:32.947Z,4.20
2023-03-05T20:20:00.990Z,4.20
2023-03-05T20:22:28.845Z,4.20
2023-03-05T20:24:58.555Z,4.20
2023-03-05T20:27:26.399Z,4.20
2023-03-05T20:29:54.288Z,4.10
2023-03-05T20:32:22.206Z,4.10
2023-03-05T20:34:52.018Z,4.00
2023-03-05T20:37:21.392Z,4.00
2023-03-05T20:39:50.932Z,4.00
2023-03-05T20:42:20.153Z,4.00
2023-03-05T20:44:48.288Z,4.00
2023-03-05T20:47:30.718Z,4.00
2023-03-05T20:49:58.592Z,4.00
2023-03-05T20:52:26.495Z,4.10
2023-03-05T20:54:54.381Z,4.10
2023-03-05T20:57:23.671Z,4.00
2023-03-05T20:59:51.586Z,4.10
2023-03-05T21:02:19.562Z,4.00
2023-03-05T21:04:47.538Z,4.00
2023-03-05T21:07:15.755Z,4.00
2023-03-05T21:09:43.656Z,4.10
2023-03-05T21:12:11.762Z,4.10
2023-03-05T21:14:41.043Z,4.10
2023-03-05T21:17:09.846Z,4.10
2023-03-05T21:19:39.782Z,4.10
2023-03-05T21:22:07.664Z,4.10
2023-03-05T21:24:52.009Z,4.10
2023-03-05T21:27:19.957Z,4.10
2023-03-05T21:29:49.182Z,4.10
2023-03-05T21:32:17.131Z,4.10
2023-03-05T21:34:45.363Z,4.20
2023-03-05T21:37:13.314Z,4.20
2023-03-05T21:39:41.202Z,4.20
2023-03-05T21:42:10.515Z,4.20
2023-03-05T21:44:38.672Z,4.10
2023-03-05T21:47:07.907Z,4.10
2023-03-05T21:49:35.831Z,4.10
2023-03-05T21:52:09.225Z,4.10
2023-03-05T21:54:37.676Z,4.10
2023-03-05T21:57:06.628Z,4.10
2023-03-05T21:59:35.012Z,4.10
2023-03-05T22:02:03.146Z,4.10
2023-03-05T22:04:32.400Z,4.10
2023-03-05T22:07:00.258Z,4.20
2023-03-05T22:09:28.388Z,4.20
2023-03-05T22:11:56.399Z,4.10
2023-03-05T22:14:24.432Z,4.20
2023-03-05T22:16:53.614Z,4.20
2023-03-05T22:19:21.644Z,4.20
2023-03-05T22:21:50.862Z,4.20
2023-03-05T22:24:18.839Z,4.20
2023-03-05T22:26:46.864Z,4.20
2023-03-05T22:29:16.786Z,4.20
2023-03-05T22:31:45.725Z,4.20
2023-03-05T22:34:13.694Z,4.20
2023-03-05T22:36:42.019Z,4.10
2023-03-05T22:39:11.295Z,4.10
2023-03-05T22:41:41.514Z,4.10
2023-03-05T22:44:09.413Z,4.10
2023-03-05T22:46:37.356Z,4.10
2023-03-05T22:49:05.313Z,4.00
2023-03-05T22:51:33.192Z,4.00
2023-03-05T22:54:01.122Z,4.00
2023-03-05T22:56:30.390Z,4.10
2023-03-05T22:58:58.426Z,4.10
2023-03-05T23:01:27.500Z,4.10
2023-03-05T23:04:03.332Z,4.10
2023-03-05T23:06:31.426Z,4.20
2023-03-05T23:08:59.356Z,4.20
2023-03-05T23:11:27.228Z,4.30
2023-03-05T23:13:56.508Z,4.30
2023-03-05T23:16:24.391Z,4.20
2023-03-05T23:18:52.336Z,4.20
2023-03-05T23:21:20.308Z,4.10
2023-03-05T23:23:48.196Z,4.00
2023-03-05T23:26:16.064Z,4.00
2023-03-05T23:28:44.035Z,4.00
2023-03-05T23:31:13.341Z,4.00
2023-03-05T23:33:41.355Z,3.90
2023-03-05T23:36:09.755Z,3.90
2023-03-05T23:38:37.935Z,3.90
2023-03-05T23:41:09.428Z,3.90
2023-03-05T23:43:37.396Z,3.90
2023-03-05T23:46:11.913Z,3.90
2023-03-05T23:48:41.933Z,4.00
2023-03-05T23:51:10.726Z,4.00
2023-03-05T23:53:38.943Z,4.10
2023-03-05T23:56:10.984Z,4.20
2023-03-05T23:58:39.365Z,4.30
